Williamstown, Ohio
Current Conditions -  °F | °C
As of 6:53 PM on Tuesday 25 Nov 2014 (Local Time) from KFDY Reporting Station
Overcast Overcast  
Wind Chill: 22°   Ceiling: 1800
Heat Index: 30°   Visibility: 10mi
Dew Point: 22°   Wind: 9mph
Humidity: 72%   Direction: 280°W
Pressure: 30.17"   Gusts: NA
Location:  40.83°N, 83.65°W
Report Text: KFDY 252353Z AUTO 28008KT 10SM OVC018 M01/M06 A3017 RMK AO2 SLP220 T10111056 10011 21011 53017
Loading
Personal Weather Stations






























Interactive Weather Map New forecast layout! Learn more

10-Day Weather Forecast

Advertisements
Track Severe Weather on mobile